Time;durP1;ratioP1;P1;durP2;ratioP2;P2;SDS_P1;SDS_P2;PMS_P1;PMS_P2;Temp;Humidity;BMP_temperature;BMP_pressure;BME280_temperature;BME280_humidity;BME280_pressure;Samples;Min_cycle;Max_cycle;Signal;HPM_P1;HPM_P2
2022/08/11 00:00:12;;;;;;;;;9.00;9.00;;;;;26.78;28.53;101372.44;5038707;28;45197;-64
2022/08/11 00:02:48;;;;;;;;;9.00;9.00;;;;;26.60;28.57;101351.53;5038508;28;45507;-63
2022/08/11 00:05:17;;;;;;;;;8.00;8.00;;;;;26.79;28.19;101365.91;5037263;28;46797;-64
2022/08/11 00:07:53;;;;;;;;;9.33;9.00;;;;;26.77;28.33;101368.03;5036411;28;45359;-64
2022/08/11 00:10:24;;;;;;;;;12.67;11.00;;;;;26.30;28.79;101307.97;5038611;28;45285;-63
2022/08/11 00:12:55;;;;;;;;;10.00;10.00;;;;;26.27;28.66;101297.53;5038327;28;45567;-64
2022/08/11 00:15:23;;;;;;;;;9.33;9.33;;;;;26.64;28.63;101363.66;5026584;28;46114;-63
2022/08/11 00:17:55;;;;;;;;;8.67;8.67;;;;;26.64;28.22;101380.03;5031943;28;46099;-64
2022/08/11 00:20:21;;;;;;;;;14.00;9.33;;;;;26.61;28.62;101363.28;5038422;28;45458;-64
2022/08/11 00:22:46;;;;;;;;;9.00;9.00;;;;;26.63;28.67;101372.91;5038656;28;45562;-63
2022/08/11 00:25:16;;;;;;;;;11.67;9.00;;;;;26.58;28.46;101369.22;5037290;28;47240;-64
2022/08/11 00:27:42;;;;;;;;;11.00;10.00;;;;;26.57;29.16;101370.28;5037513;28;45490;-64
2022/08/11 00:30:09;;;;;;;;;9.67;9.00;;;;;25.81;28.41;101248.34;5038270;28;45570;-64
2022/08/11 00:32:39;;;;;;;;;12.33;10.00;;;;;26.49;28.59;101366.00;5034070;28;45401;-63
2022/08/11 00:35:09;;;;;;;;;10.00;10.00;;;;;26.54;28.45;101378.94;5036615;28;47322;-63
2022/08/11 00:37:38;;;;;;;;;8.00;8.00;;;;;26.48;28.22;101366.25;5037712;28;45275;-63
2022/08/11 00:40:09;;;;;;;;;11.00;11.00;;;;;26.50;28.24;101377.75;5037354;28;45293;-63
2022/08/11 00:43:01;;;;;;;;;11.67;11.67;;;;;26.47;28.30;101375.50;5038121;28;45636;-64
2022/08/11 00:45:34;;;;;;;;;10.00;10.00;;;;;26.12;27.91;101320.84;5037126;28;45626;-64
2022/08/11 00:48:10;;;;;;;;;8.00;8.00;;;;;26.45;28.00;101380.34;5037766;28;45306;-64
2022/08/11 00:51:00;;;;;;;;;9.67;9.33;;;;;26.42;27.63;101376.16;5037971;28;45330;-65
2022/08/11 00:53:47;;;;;;;;;9.00;8.00;;;;;26.33;27.76;101367.47;5029669;28;45296;-64
2022/08/11 00:56:50;;;;;;;;;7.00;7.00;;;;;26.42;27.68;101375.34;5037002;28;45679;-64
2022/08/11 00:59:50;;;;;;;;;10.33;10.33;;;;;26.37;27.65;101374.16;5037644;28;45355;-64
2022/08/11 01:02:38;;;;;;;;;8.33;8.33;;;;;26.32;27.71;101384.91;5029364;28;45283;-64
2022/08/11 01:05:22;;;;;;;;;9.33;9.33;;;;;26.33;28.20;101372.94;5037553;28;45607;-63
2022/08/11 01:08:09;;;;;;;;;8.33;7.00;;;;;26.24;27.60;101376.22;5037480;28;45802;-64
2022/08/11 01:10:54;;;;;;;;;9.67;9.00;;;;;26.26;27.74;101382.28;5037886;28;45669;-73
2022/08/11 01:13:45;;;;;;;;;10.67;9.00;;;;;26.22;27.61;101379.16;5023763;28;45452;-63
2022/08/11 01:16:49;;;;;;;;;9.00;8.33;;;;;26.23;28.00;101378.13;5037212;28;45490;-64
2022/08/11 01:19:24;;;;;;;;;9.00;7.67;;;;;26.20;28.08;101372.28;5034214;28;45692;-63
2022/08/11 01:21:58;;;;;;;;;9.00;8.00;;;;;26.19;27.85;101376.91;5037856;28;45257;-63
2022/08/11 01:24:58;;;;;;;;;8.00;8.00;;;;;26.14;27.78;101374.03;5020346;28;45544;-63
2022/08/11 01:27:48;;;;;;;;;8.00;7.00;;;;;26.17;27.96;101370.84;5036668;28;45627;-63
2022/08/11 01:30:48;;;;;;;;;7.33;7.33;;;;;26.14;28.21;101373.22;5022636;28;45405;-63
2022/08/11 01:33:34;;;;;;;;;9.67;9.67;;;;;26.16;28.82;101368.38;5034117;28;45570;-63
2022/08/11 01:36:33;;;;;;;;;9.67;9.67;;;;;26.15;28.90;101374.88;5036842;28;45276;-63
2022/08/11 01:39:12;;;;;;;;;8.33;8.33;;;;;26.00;29.26;101351.59;5037240;28;45542;-64
2022/08/11 01:45:16;;;;;;;;;10.00;10.00;;;;;25.98;29.34;101355.63;5035496;28;45526;-64
2022/08/11 01:47:57;;;;;;;;;9.00;9.00;;;;;26.00;29.55;101365.22;5036857;28;45711;-64
2022/08/11 01:50:35;;;;;;;;;8.00;8.00;;;;;25.98;29.66;101369.25;5035869;28;45594;-71
2022/08/11 01:53:22;;;;;;;;;11.00;11.00;;;;;25.99;29.73;101370.91;5035783;28;45866;-64
2022/08/11 01:56:02;;;;;;;;;10.33;9.33;;;;;25.96;29.91;101372.19;5037028;28;45276;-64
2022/08/11 01:58:33;;;;;;;;;9.67;9.00;;;;;25.95;29.59;101370.53;5037135;28;45445;-64
2022/08/11 02:01:36;;;;;;;;;10.00;10.00;;;;;25.94;29.80;101373.50;5035670;28;45459;-64
2022/08/11 02:04:18;;;;;;;;;11.67;11.67;;;;;25.90;29.93;101372.28;5018723;28;47716;-64
2022/08/11 02:06:54;;;;;;;;;9.67;9.67;;;;;25.89;29.83;101378.81;5036904;28;45435;-64
2022/08/11 02:09:44;;;;;;;;;8.67;8.67;;;;;25.42;29.62;101299.53;5036705;28;45491;-64
2022/08/11 02:12:37;;;;;;;;;11.00;10.00;;;;;25.80;30.04;101366.53;5037006;28;45589;-64
2022/08/11 02:15:18;;;;;;;;;10.00;9.67;;;;;25.85;29.73;101372.16;5036741;28;46477;-64
2022/08/11 02:17:48;;;;;;;;;10.67;10.67;;;;;25.30;30.05;101293.22;5036808;28;45500;-63
2022/08/11 02:23:38;;;;;;;;;10.00;9.67;;;;;25.75;30.16;101369.97;5036903;28;45528;-73
2022/08/11 02:26:24;;;;;;;;;12.00;8.00;;;;;25.45;30.46;101327.16;5036903;28;46600;-64
2022/08/11 02:29:02;;;;;;;;;11.67;11.67;;;;;25.69;30.47;101373.63;5036223;28;45458;-64
2022/08/11 02:34:43;;;;;;;;;11.33;11.33;;;;;25.64;30.25;101373.44;5036214;28;45488;-64
2022/08/11 02:37:25;;;;;;;;;10.00;10.00;;;;;25.57;30.58;101373.50;5036830;28;46483;-64
2022/08/11 02:39:58;;;;;;;;;10.33;10.00;;;;;25.47;30.30;101356.88;5030325;28;45518;-63
2022/08/11 02:42:45;;;;;;;;;10.00;10.00;;;;;25.53;30.09;101376.91;5018975;28;45269;-63
2022/08/11 02:45:13;;;;;;;;;9.00;9.00;;;;;25.52;30.22;101369.81;5019612;28;45489;-63
2022/08/11 02:50:48;;;;;;;;;12.67;10.00;;;;;25.44;30.51;101379.94;5038310;28;45531;-63
2022/08/11 02:53:25;;;;;;;;;10.00;10.00;;;;;25.44;30.54;101373.69;5039594;28;45210;-63
2022/08/11 02:55:56;;;;;;;;;10.00;10.00;;;;;25.40;30.54;101362.38;5040192;28;45509;-63
2022/08/11 02:58:36;;;;;;;;;9.00;9.00;;;;;25.31;31.03;101357.47;5039741;28;46319;-63
2022/08/11 03:01:32;;;;;;;;;11.00;11.00;;;;;25.33;30.89;101358.91;5035513;28;45454;-71
2022/08/11 03:04:21;;;;;;;;;9.00;9.00;;;;;25.32;30.78;101364.59;5038598;28;45493;-64
2022/08/11 03:07:05;;;;;;;;;11.67;11.67;;;;;25.29;31.08;101365.88;5040271;28;45251;-64
2022/08/11 03:09:36;;;;;;;;;11.00;10.67;;;;;25.26;31.07;101354.63;5024732;28;46749;-64
2022/08/11 03:18:25;;;;;;;;;10.33;10.33;;;;;25.15;31.45;101376.06;5039793;28;45256;-64
2022/08/11 03:21:01;;;;;;;;;10.00;8.00;;;;;25.07;31.45;101360.03;5037886;28;45801;-64
2022/08/11 03:23:34;;;;;;;;;10.00;8.67;;;;;25.06;31.59;101374.69;5038255;28;45647;-64
2022/08/11 03:26:25;;;;;;;;;10.67;10.67;;;;;25.06;31.84;101361.09;5037567;28;45552;-66
2022/08/11 03:29:01;;;;;;;;;11.33;10.00;;;;;25.04;31.72;101357.78;5032713;28;45543;-64
2022/08/11 03:31:35;;;;;;;;;10.00;8.33;;;;;25.05;31.17;101361.31;5035192;28;46586;-64
2022/08/11 03:34:20;;;;;;;;;11.67;11.00;;;;;25.02;31.81;101365.28;5038522;28;45270;-68
2022/08/11 03:37:47;;;;;;;;;8.00;8.00;;;;;24.99;31.66;101359.44;5037213;28;45424;-64
2022/08/11 03:39:58;;;;;;;;;10.00;10.00;;;;;24.94;31.36;101359.28;5025106;28;45727;-64
2022/08/11 03:42:46;;;;;;;;;10.33;10.00;;;;;24.91;31.47;101362.47;5024316;28;47385;-63
2022/08/11 03:45:29;;;;;;;;;9.33;8.00;;;;;24.90;31.78;101363.53;5039588;28;45342;-63
2022/08/11 03:48:10;;;;;;;;;8.67;8.67;;;;;24.80;31.75;101362.13;5037580;28;45349;-69
2022/08/11 03:51:13;;;;;;;;;7.00;7.00;;;;;24.79;31.87;101367.78;5037046;28;45385;-64
2022/08/11 03:54:08;;;;;;;;;9.00;9.00;;;;;24.77;31.51;101367.19;5038112;28;45586;-64
2022/08/11 03:56:54;;;;;;;;;9.33;9.33;;;;;24.77;31.43;101369.91;5036547;28;45538;-64
2022/08/11 03:59:31;;;;;;;;;8.67;8.67;;;;;24.77;31.72;101367.19;5038084;28;45319;-64
2022/08/11 04:02:05;;;;;;;;;12.33;10.67;;;;;24.74;31.42;101356.75;5037044;28;45313;-63
2022/08/11 04:05:08;;;;;;;;;9.67;9.67;;;;;24.73;31.78;101360.53;5031776;28;46585;-63
2022/08/11 04:07:55;;;;;;;;;10.67;9.00;;;;;24.70;31.98;101361.81;5037933;28;45678;-64
2022/08/11 04:10:29;;;;;;;;;10.33;10.33;;;;;24.68;31.40;101363.91;5038082;28;45395;-63
2022/08/11 04:13:21;;;;;;;;;14.00;10.00;;;;;24.61;31.59;101352.25;5037346;28;45359;-63
2022/08/11 04:16:34;;;;;;;;;9.00;9.00;;;;;24.61;32.37;101362.28;5037100;28;46893;-63
2022/08/11 04:19:18;;;;;;;;;8.67;8.67;;;;;24.53;32.19;101366.97;4960902;28;45948;-64
2022/08/11 04:22:07;;;;;;;;;11.67;11.33;;;;;24.47;32.28;101367.84;5037788;28;45301;-64
2022/08/11 04:24:36;;;;;;;;;11.00;10.00;;;;;24.44;32.33;101368.31;5037172;28;45332;-73
2022/08/11 04:27:46;;;;;;;;;12.00;11.00;;;;;24.41;32.63;101368.72;5018567;28;46120;-66
2022/08/11 04:30:19;;;;;;;;;13.67;10.00;;;;;24.31;32.72;101362.13;5035891;28;45219;-64
2022/08/11 04:33:33;;;;;;;;;10.33;10.33;;;;;24.35;32.43;101374.22;5035697;28;45453;-64
2022/08/11 04:36:14;;;;;;;;;10.33;10.33;;;;;24.32;32.75;101367.31;5037517;28;45542;-63
2022/08/11 04:39:08;;;;;;;;;9.00;9.00;;;;;24.31;32.91;101368.38;5036443;28;47071;-66
2022/08/11 04:45:21;;;;;;;;;12.00;12.00;;;;;24.35;32.42;101369.59;5034443;28;45348;-63
2022/08/11 05:05:29;;;;;;;;;10.00;8.67;;;;;24.23;32.44;101349.59;5022867;28;45467;-64
2022/08/11 05:07:38;;;;;;;;;12.00;11.33;;;;;24.17;32.46;101350.47;5034118;28;45420;-64
2022/08/11 05:10:21;;;;;;;;;13.33;12.00;;;;;24.26;33.04;101376.34;5034567;28;45504;-62
2022/08/11 05:35:47;;;;;;;;;11.33;10.33;;;;;24.26;32.37;101398.91;5037668;28;45364;-64
2022/08/11 05:58:02;;;;;;;;;9.00;7.33;;;;;24.64;31.36;101410.81;5037237;28;45421;-64
2022/08/11 06:00:29;;;;;;;;;12.33;10.67;;;;;24.54;30.88;101389.53;5035568;28;47720;-64
2022/08/11 06:02:57;;;;;;;;;10.00;8.67;;;;;24.66;30.53;101400.56;5036910;28;45372;-63
2022/08/11 06:05:31;;;;;;;;;10.67;10.67;;;;;24.64;30.54;101408.94;5037286;28;45503;-64
2022/08/11 06:07:57;;;;;;;;;11.67;11.67;;;;;24.76;30.55;101418.03;5036561;28;45197;-63
2022/08/11 06:10:34;;;;;;;;;8.00;8.00;;;;;24.77;30.08;101416.97;5037137;28;45592;-65
2022/08/11 06:13:01;;;;;;;;;11.00;11.00;;;;;24.71;30.59;101389.84;5034334;28;46977;-65
2022/08/11 06:15:28;;;;;;;;;10.33;10.33;;;;;24.80;30.12;101410.25;5036907;28;45436;-64
2022/08/11 06:17:54;;;;;;;;;12.00;12.00;;;;;24.91;30.17;101414.16;5036503;28;45318;-65
2022/08/11 06:20:21;;;;;;;;;12.00;10.00;;;;;24.97;30.41;101415.97;5033663;28;47546;-65
2022/08/11 06:23:01;;;;;;;;;15.33;11.67;;;;;24.96;29.69;101409.69;5014855;28;45484;-64
2022/08/11 06:25:31;;;;;;;;;10.67;9.33;;;;;25.29;29.90;101406.72;5031248;28;46886;-64
2022/08/11 06:27:58;;;;;;;;;11.67;11.67;;;;;26.00;28.29;101411.53;5035850;28;45423;-65
2022/08/11 06:30:45;;;;;;;;;11.67;11.67;;;;;26.96;27.32;101417.88;5036414;28;45381;-64
2022/08/11 06:33:14;;;;;;;;;11.00;10.00;;;;;27.68;26.65;101406.75;5016427;28;45663;-65
2022/08/11 06:36:01;;;;;;;;;10.33;10.33;;;;;28.32;25.31;101418.44;5027375;28;45611;-66
2022/08/11 06:38:48;;;;;;;;;7.33;7.33;;;;;28.58;24.50;101415.06;5016980;28;45336;-65
2022/08/11 06:41:30;;;;;;;;;10.00;8.67;;;;;29.17;24.21;101410.00;5016611;28;45737;-65
2022/08/11 06:44:11;;;;;;;;;8.33;8.33;;;;;29.92;23.32;101405.84;5024020;28;45443;-63
2022/08/11 06:46:39;;;;;;;;;6.67;5.33;;;;;30.35;22.50;101366.53;5033863;28;45579;-65
2022/08/11 06:52:06;;;;;;;;;9.67;9.67;;;;;32.26;20.97;101407.50;5036286;28;45714;-66
2022/08/11 06:54:37;;;;;;;;;10.33;10.33;;;;;32.70;20.08;101393.25;5018316;28;46501;-65
2022/08/11 07:02:59;;;;;;;;;10.67;10.67;;;;;34.24;18.73;101407.13;5034837;28;45480;-66
2022/08/11 07:05:49;;;;;;;;;10.00;8.67;;;;;34.28;18.09;101344.72;5022496;28;45472;-66
2022/08/11 07:17:42;;;;;;;;;9.00;9.00;;;;;36.41;16.44;101404.25;5017163;28;45592;-68
2022/08/11 07:28:54;;;;;;;;;10.33;8.00;;;;;37.62;16.00;101414.25;5032961;28;46360;-66
2022/08/11 07:31:29;;;;;;;;;7.00;7.00;;;;;37.81;14.92;101366.97;5032154;28;45702;-66
2022/08/11 07:34:06;;;;;;;;;8.33;8.33;;;;;38.56;14.46;101391.28;5019234;28;45556;-68
2022/08/11 07:36:33;;;;;;;;;6.67;6.67;;;;;39.11;14.78;101411.28;5035857;28;47479;-67
2022/08/11 07:39:00;;;;;;;;;8.00;8.00;;;;;39.47;14.24;101393.59;5021641;28;45444;-65
2022/08/11 07:41:29;;;;;;;;;8.00;8.00;;;;;39.37;13.55;101346.56;5044365;28;45913;-71
2022/08/11 07:44:07;;;;;;;;;8.00;8.00;;;;;40.06;13.24;101402.41;5045089;28;45215;-65
2022/08/11 07:52:25;;;;;;;;;9.00;9.00;;;;;40.42;13.22;101399.28;5034809;28;45557;-66
2022/08/11 07:54:53;;;;;;;;;6.67;6.67;;;;;40.58;13.03;101386.47;5028456;28;45891;-66
2022/08/11 08:19:19;;;;;;;;;7.67;7.67;;;;;41.05;12.23;101386.56;5038086;28;45405;-66
2022/08/11 08:21:46;;;;;;;;;9.00;9.00;;;;;40.94;12.96;101382.47;5033252;28;45567;-65
2022/08/11 08:24:11;;;;;;;;;10.00;10.00;;;;;40.77;12.50;101340.69;5038575;28;45430;-68
2022/08/11 08:32:07;;;;;;;;;7.33;7.33;;;;;39.87;12.92;101394.34;5039933;28;45247;-66
2022/08/11 08:34:35;;;;;;;;;8.33;6.67;;;;;39.66;13.13;101398.91;5039188;28;45579;-66
2022/08/11 08:37:01;;;;;;;;;7.00;7.00;;;;;39.65;13.53;101398.09;5032329;28;45619;-69
2022/08/11 08:39:26;;;;;;;;;8.00;8.00;;;;;39.42;13.57;101388.97;5037743;28;46139;-67
2022/08/11 08:41:55;;;;;;;;;8.67;8.67;;;;;39.36;14.32;101392.22;5043776;28;45523;-66
2022/08/11 08:44:24;;;;;;;;;7.00;7.00;;;;;39.59;13.70;101391.00;5038387;28;46480;-66
2022/08/11 08:46:54;;;;;;;;;9.00;9.00;;;;;39.56;13.48;101388.88;5044009;28;45468;-66
2022/08/11 08:49:26;;;;;;;;;8.00;8.00;;;;;39.85;13.92;101391.06;5039096;28;46679;-66
2022/08/11 08:51:53;;;;;;;;;8.00;8.00;;;;;40.09;13.61;101396.19;5035833;28;45574;-72
2022/08/11 08:54:22;;;;;;;;;6.00;5.00;;;;;40.43;13.42;101390.59;5033562;28;46669;-71
2022/08/11 08:56:53;;;;;;;;;7.33;7.33;;;;;40.57;13.19;101376.47;5035355;28;46274;-66
2022/08/11 08:59:22;;;;;;;;;7.33;7.00;;;;;41.12;12.49;101399.97;5019166;28;46891;-66
2022/08/11 09:01:56;;;;;;;;;6.67;6.67;;;;;41.20;13.37;101385.16;5038949;28;45980;-66
2022/08/11 09:04:24;;;;;;;;;6.33;6.33;;;;;40.77;12.37;101329.53;5038238;28;45435;-67
2022/08/11 09:06:50;;;;;;;;;9.00;7.00;;;;;40.88;13.28;101394.97;5032857;28;45466;-68
2022/08/11 09:09:16;;;;;;;;;7.67;7.67;;;;;40.90;12.67;101392.66;5019644;28;47820;-65
2022/08/11 09:11:54;;;;;;;;;8.33;8.33;;;;;41.05;13.03;101394.91;5037263;28;46057;-69
2022/08/11 09:14:59;;;;;;;;;5.00;5.00;;;;;41.06;12.97;101396.56;5033345;28;46996;-65
2022/08/11 09:17:17;;;;;;;;;6.00;6.00;;;;;41.44;12.19;101398.50;5037543;28;45555;-76
2022/08/11 09:19:44;;;;;;;;;7.33;7.33;;;;;41.66;12.09;101380.69;5043019;28;45493;-66
2022/08/11 09:27:39;;;;;;;;;4.00;4.00;;;;;43.19;11.11;101380.69;5034979;28;45455;-66
2022/08/11 09:30:06;;;;;;;;;6.00;6.00;;;;;44.08;10.27;101372.28;5034383;28;45526;-70
2022/08/11 09:32:33;;;;;;;;;5.00;5.00;;;;;44.67;9.98;101349.94;5035337;28;45630;-65
2022/08/11 09:35:01;;;;;;;;;7.00;7.00;;;;;45.46;9.49;101386.44;5041520;28;47080;-66
2022/08/11 09:40:30;;;;;;;;;4.67;4.67;;;;;46.55;8.51;101359.03;5032729;28;45731;-67
2022/08/11 09:45:50;;;;;;;;;6.33;5.33;;;;;47.33;8.78;101358.75;5036587;28;45179;-66
2022/08/11 09:48:17;;;;;;;;;6.00;5.00;;;;;47.46;8.36;101326.31;5021393;28;45468;-67
2022/08/11 09:50:47;;;;;;;;;6.67;6.33;;;;;47.28;7.65;101311.19;5018127;28;48413;-67
2022/08/11 09:53:14;;;;;;;;;5.00;5.00;;;;;47.85;7.44;101363.50;5032421;28;45490;-66
2022/08/11 09:55:40;;;;;;;;;6.00;6.00;;;;;47.58;7.93;101343.03;5037097;28;45285;-67
2022/08/11 09:58:17;;;;;;;;;6.67;6.67;;;;;47.13;8.55;101347.59;5036164;28;45491;-65
2022/08/11 10:00:46;;;;;;;;;6.33;5.00;;;;;47.74;7.64;101357.72;5017056;28;47391;-66
2022/08/11 10:03:18;;;;;;;;;7.67;5.67;;;;;47.81;8.04;101352.19;5034980;28;45515;-66
2022/08/11 10:08:32;;;;;;;;;5.00;5.00;;;;;47.81;7.84;101363.44;5034851;28;45255;-66
2022/08/11 10:10:59;;;;;;;;;6.00;6.00;;;;;46.86;8.00;101354.38;5010344;28;45577;-66
2022/08/11 10:15:32;;;;;;;;;6.00;6.00;;;;;45.69;9.39;101350.03;5036361;28;45420;-66
2022/08/11 10:16:28;;;;;;;;;5.33;5.33;;;;;44.35;9.76;101348.25;5026453;28;45171;-66
2022/08/11 10:18:57;;;;;;;;;7.33;6.67;;;;;43.00;10.06;101356.88;5029960;28;45607;-67
2022/08/11 10:21:28;;;;;;;;;6.67;6.67;;;;;41.84;10.90;101348.66;5016454;28;48719;-75
2022/08/11 10:26:55;;;;;;;;;8.00;8.00;;;;;39.90;12.13;101349.13;5035098;28;45395;-67
2022/08/11 10:34:53;;;;;;;;;8.00;8.00;;;;;37.36;14.36;101339.06;5035155;28;45443;-66
2022/08/11 10:37:21;;;;;;;;;7.00;7.00;;;;;36.69;14.31;101333.13;5035468;28;45347;-67
2022/08/11 10:39:48;;;;;;;;;8.33;7.33;;;;;36.01;15.84;101330.94;5035976;28;45281;-67
2022/08/11 10:45:00;;;;;;;;;7.67;7.67;;;;;35.22;16.20;101314.81;5036627;28;45303;-67
2022/08/11 10:47:35;;;;;;;;;8.00;8.00;;;;;34.61;17.27;101318.22;5035042;28;45265;-67
2022/08/11 11:01:14;;;;;;;;;8.00;8.00;;;;;33.24;17.72;101295.09;5035496;28;45304;-68
2022/08/11 11:03:41;;;;;;;;;8.00;8.00;;;;;33.31;18.13;101330.63;5033995;28;45820;-68
2022/08/11 11:06:34;;;;;;;;;12.00;9.33;;;;;33.16;18.42;101317.72;5035523;28;45429;-67
2022/08/11 11:09:07;;;;;;;;;5.67;5.00;;;;;33.01;18.95;101305.91;5022161;28;45383;-68
2022/08/11 11:19:39;;;;;;;;;14.00;14.00;;;;;32.21;19.63;101261.66;5038173;28;45380;-66
2022/08/11 11:25:05;;;;;;;;;9.33;9.33;;;;;31.45;19.34;101127.72;5036925;28;45492;-65
2022/08/11 11:27:47;;;;;;;;;50.00;41.67;;;;;32.27;19.36;101272.44;5038412;28;45562;-66
2022/08/11 11:30:14;;;;;;;;;14.33;14.33;;;;;32.13;18.91;101274.06;5021608;28;45377;-66
2022/08/11 11:32:39;;;;;;;;;31.00;30.67;;;;;32.16;19.18;101278.19;5020972;28;45467;-66
2022/08/11 11:35:19;;;;;;;;;10.67;10.67;;;;;32.11;19.06;101270.75;5038793;28;48113;-66
2022/08/11 11:37:48;;;;;;;;;42.75;37.50;;;;;32.13;20.01;101273.22;5015957;28;45522;-64
2022/08/11 11:40:20;;;;;;;;;11.67;11.67;;;;;31.90;18.96;101267.16;5032057;28;45224;-71
2022/08/11 11:42:47;;;;;;;;;22.67;19.00;;;;;31.92;19.66;101266.88;5029995;28;45555;-66
2022/08/11 11:45:21;;;;;;;;;11.67;11.67;;;;;31.95;19.46;101263.59;5037118;28;45803;-66
2022/08/11 11:47:54;;;;;;;;;13.00;11.00;;;;;32.01;19.30;101276.25;5024462;28;45335;-66
2022/08/11 11:50:28;;;;;;;;;28.67;27.67;;;;;31.99;19.75;101264.69;5024477;28;45396;-66
2022/08/11 11:52:54;;;;;;;;;15.67;15.67;;;;;32.00;19.39;101258.91;5019714;28;45292;-64
2022/08/11 11:55:23;;;;;;;;;10.00;10.00;;;;;31.94;19.47;101239.94;5028661;28;45644;-66
2022/08/11 12:03:19;;;;;;;;;9.33;9.00;;;;;31.92;19.47;101269.63;5036248;28;45805;-66
2022/08/11 12:05:46;;;;;;;;;17.00;17.00;;;;;31.76;19.88;101239.38;5038706;28;45341;-67
2022/08/11 12:08:16;;;;;;;;;11.33;10.00;;;;;31.77;19.69;101271.25;5038499;28;45607;-65
2022/08/11 12:10:46;;;;;;;;;10.33;9.67;;;;;31.76;19.39;101277.03;5006841;28;45504;-67
2022/08/11 12:16:02;;;;;;;;;8.00;8.00;;;;;31.68;19.13;101239.06;5038638;28;45498;-66
2022/08/11 12:18:34;;;;;;;;;12.33;12.33;;;;;31.71;19.47;101247.59;5039817;28;45206;-65
2022/08/11 12:21:01;;;;;;;;;13.67;11.00;;;;;31.83;19.70;101265.75;5035903;28;45494;-67
2022/08/11 12:29:01;;;;;;;;;10.00;10.00;;;;;31.62;20.12;101249.22;5029279;28;45603;-67
2022/08/11 12:31:31;;;;;;;;;9.00;9.00;;;;;31.57;19.37;101229.97;5029993;28;45408;-65
2022/08/11 12:34:05;;;;;;;;;7.33;7.33;;;;;31.57;19.52;101229.97;5037314;28;45558;-67
2022/08/11 12:36:38;;;;;;;;;11.33;9.33;;;;;31.11;19.94;101149.34;5033781;28;45694;-66
2022/08/11 12:39:09;;;;;;;;;9.33;8.33;;;;;31.61;19.50;101200.00;5037883;28;45511;-67
2022/08/11 12:47:15;;;;;;;;;9.67;9.67;;;;;31.76;19.74;101228.38;5037809;28;45357;-67
2022/08/11 12:52:42;;;;;;;;;9.33;9.33;;;;;31.86;19.85;101210.25;5019207;28;45414;-67
2022/08/11 12:58:14;;;;;;;;;10.00;10.00;;;;;31.89;19.56;101209.69;5018447;28;45527;-67
2022/08/11 12:58:15;;;;;;;;;8.00;8.00;;;;;31.94;19.75;101215.19;5018088;28;45394;-67
2022/08/11 13:06:11;;;;;;;;;7.00;7.00;;;;;31.90;19.36;101205.84;5037127;28;45480;-66
2022/08/11 13:08:39;;;;;;;;;11.67;10.33;;;;;31.89;19.07;101206.94;5037059;28;46728;-65
2022/08/11 13:13:54;;;;;;;;;7.67;7.67;;;;;31.97;18.76;101233.88;5038027;28;45266;-67
2022/08/11 13:16:22;;;;;;;;;8.00;8.00;;;;;31.66;19.13;101156.06;5038117;28;45242;-67
2022/08/11 13:18:49;;;;;;;;;9.33;8.00;;;;;31.94;19.46;101201.44;5037379;28;45449;-66
2022/08/11 13:21:16;;;;;;;;;7.67;7.33;;;;;31.97;19.37;101200.88;5037332;28;45330;-66
2022/08/11 13:23:42;;;;;;;;;7.33;7.33;;;;;31.61;19.03;101151.34;5037848;28;45231;-66
2022/08/11 13:26:08;;;;;;;;;7.67;7.67;;;;;31.90;19.87;101195.66;5031749;28;45366;-67
2022/08/11 13:28:39;;;;;;;;;9.00;9.00;;;;;32.00;19.22;101198.41;5017514;28;45687;-65
2022/08/11 13:31:13;;;;;;;;;8.00;8.00;;;;;32.08;19.82;101192.38;5017635;28;45439;-67
2022/08/11 13:33:45;;;;;;;;;9.67;9.67;;;;;32.15;19.39;101196.75;5017210;28;45417;-66
2022/08/11 13:36:11;;;;;;;;;10.33;10.00;;;;;32.22;19.52;101191.78;5032207;28;45477;-65
2022/08/11 13:38:40;;;;;;;;;7.00;7.00;;;;;32.21;19.13;101179.94;5036386;28;46229;-66
2022/08/11 13:41:36;;;;;;;;;5.00;4.00;;;;;32.16;19.25;101177.22;5037646;28;45517;-67
2022/08/11 13:43:53;;;;;;;;;9.67;8.67;;;;;32.21;19.41;101185.44;5035655;28;45419;-65
2022/08/11 13:46:21;;;;;;;;;9.00;9.00;;;;;32.13;19.65;101177.78;5036576;28;45242;-71
2022/08/11 13:48:48;;;;;;;;;10.33;9.00;;;;;32.22;18.95;101186.28;5016758;28;47440;-67
2022/08/11 13:51:46;;;;;;;;;9.67;9.67;;;;;32.16;19.86;101170.88;5023513;28;46311;-67
2022/08/11 13:54:19;;;;;;;;;9.00;9.00;;;;;31.37;19.46;101037.59;5032138;28;45576;-66
2022/08/11 13:56:47;;;;;;;;;13.00;11.67;;;;;32.06;19.87;101156.06;5036100;28;45444;-66
2022/08/11 13:59:14;;;;;;;;;9.67;9.67;;;;;31.76;19.75;101114.81;5036807;28;46187;-65
2022/08/11 14:01:47;;;;;;;;;12.00;12.00;;;;;31.95;20.01;101142.59;5026447;28;45403;-66
2022/08/11 14:04:27;;;;;;;;;9.67;9.67;;;;;32.11;20.04;101173.66;5031966;28;45443;-66
2022/08/11 14:06:54;;;;;;;;;11.67;9.00;;;;;32.06;19.79;101169.00;5025834;28;46151;-67
2022/08/11 14:09:26;;;;;;;;;8.67;8.67;;;;;32.02;20.09;101170.63;5017930;28;47790;-66
2022/08/11 14:14:45;;;;;;;;;11.00;9.00;;;;;31.44;19.15;101079.38;5019955;28;45468;-67
2022/08/11 14:17:14;;;;;;;;;10.67;10.67;;;;;31.92;19.24;101145.88;5036942;28;45314;-66
2022/08/11 14:19:43;;;;;;;;;10.00;10.00;;;;;32.06;19.34;101171.75;5034775;28;46139;-67
2022/08/11 14:22:13;;;;;;;;;8.33;8.33;;;;;32.10;20.21;101163.75;5016824;28;46636;-65
2022/08/11 14:24:40;;;;;;;;;9.67;9.67;;;;;31.92;19.76;101134.88;5034674;28;45495;-67
2022/08/11 14:27:10;;;;;;;;;8.00;8.00;;;;;32.05;19.59;101154.41;5028243;28;45265;-66
2022/08/11 14:29:39;;;;;;;;;11.00;11.00;;;;;32.04;19.80;101152.75;5031821;28;46548;-66
2022/08/11 14:32:08;;;;;;;;;8.67;8.67;;;;;32.07;19.70;101151.38;5021772;28;45407;-65
2022/08/11 14:34:37;;;;;;;;;10.00;10.00;;;;;32.02;19.95;101134.84;5032321;28;45279;-66
2022/08/11 14:37:07;;;;;;;;;10.33;10.33;;;;;32.07;19.73;101154.13;5036760;28;45623;-68
2022/08/11 14:39:51;;;;;;;;;11.00;11.00;;;;;32.03;19.63;101145.59;5022811;28;48086;-67
2022/08/11 14:47:56;;;;;;;;;10.33;10.33;;;;;31.82;19.75;101077.16;5036078;28;45412;-67
2022/08/11 14:50:28;;;;;;;;;10.67;9.67;;;;;32.15;19.55;101125.22;5035119;28;46628;-76
2022/08/11 14:53:09;;;;;;;;;10.67;9.67;;;;;32.16;19.95;101108.44;5035289;28;45540;-67
2022/08/11 14:58:24;;;;;;;;;11.67;10.67;;;;;32.19;19.12;101124.38;5034417;28;45475;-68
2022/08/11 15:00:56;;;;;;;;;10.00;10.00;;;;;32.22;19.60;101125.75;5035745;28;46291;-67
2022/08/11 15:03:23;;;;;;;;;11.67;10.67;;;;;32.22;19.52;101118.31;5034319;28;45530;-67
2022/08/11 15:05:51;;;;;;;;;10.67;10.67;;;;;32.15;19.24;101104.03;5034575;28;45309;-67
2022/08/11 15:08:18;;;;;;;;;12.00;10.00;;;;;32.15;18.96;101090.28;5017147;28;45361;-67
2022/08/11 15:10:46;;;;;;;;;8.67;8.67;;;;;32.24;19.18;101104.31;5019367;28;46089;-67
2022/08/11 15:13:17;;;;;;;;;9.67;8.67;;;;;32.07;19.08;101104.63;5017178;28;45691;-68
2022/08/11 15:18:28;;;;;;;;;12.67;10.33;;;;;32.00;19.34;101084.81;5036014;28;45439;-67
2022/08/11 15:37:36;;;;;;;;;12.00;11.00;;;;;32.34;19.47;101080.34;5035270;28;45282;-68
2022/08/11 15:45:52;;;;;;;;;12.00;11.00;;;;;32.36;19.03;101089.13;5035802;28;45215;-66
2022/08/11 15:48:32;;;;;;;;;10.00;10.00;;;;;32.37;18.74;101085.28;5035556;28;45541;-65
2022/08/11 15:51:09;;;;;;;;;9.33;7.00;;;;;32.31;18.86;101077.34;5034034;28;45516;-65
2022/08/11 15:53:42;;;;;;;;;11.00;11.00;;;;;32.30;19.30;101073.75;5035687;28;45326;-65
2022/08/11 15:56:10;;;;;;;;;9.00;8.67;;;;;32.35;18.94;101076.47;5037195;28;45485;-64
2022/08/11 16:04:25;;;;;;;;;12.67;11.00;;;;;32.28;19.23;101069.66;5037435;28;45482;-68
2022/08/11 16:06:56;;;;;;;;;10.67;10.67;;;;;32.05;19.23;101043.56;5033164;28;47006;-68
2022/08/11 16:09:45;;;;;;;;;11.33;11.33;;;;;32.17;18.66;101063.31;5038580;28;45464;-68
2022/08/11 16:12:14;;;;;;;;;9.33;9.33;;;;;32.21;18.97;101074.56;5038637;28;45544;-68
2022/08/11 16:17:34;;;;;;;;;11.00;11.00;;;;;32.33;19.33;101064.13;5038225;28;45458;-68
2022/08/11 16:20:02;;;;;;;;;10.00;10.00;;;;;32.28;19.28;101056.72;5033934;28;45354;-65